Time;durP1;ratioP1;P1;durP2;ratioP2;P2;SDS_P1;SDS_P2;PMS_P1;PMS_P2;Temp;Humidity;BMP_temperature;BMP_pressure;BME280_temperature;BME280_humidity;BME280_pressure;Samples;Min_cycle;Max_cycle;Signal;HPM_P1;HPM_P2
2022/06/22 00:01:27;;;;;;;10.10;8.05;;;;;;;;;;5106817;28;20096;-82
2022/06/22 00:03:55;;;;;;;13.82;9.77;;;;;;;;;;5104253;28;20028;-81
2022/06/22 00:06:38;;;;;;;14.90;8.85;;;;;;;;;;5106839;28;20102;-81
2022/06/22 00:09:05;;;;;;;11.73;8.63;;;;;;;;;;5108383;28;20043;-81
2022/06/22 00:11:31;;;;;;;11.57;7.78;;;;;;;;;;5109291;28;20035;-81
2022/06/22 00:13:59;;;;;;;12.80;7.38;;;;;;;;;;5111131;28;20028;-81
2022/06/22 00:16:28;;;;;;;11.25;7.82;;;;;;;;;;5091891;28;20566;-81
2022/06/22 00:18:55;;;;;;;11.77;8.65;;;;;;;;;;5092901;28;20032;-81
2022/06/22 00:21:21;;;;;;;10.10;7.30;;;;;;;;;;5107702;28;20380;-81
2022/06/22 00:23:49;;;;;;;10.00;7.45;;;;;;;;;;5093509;28;20521;-81
2022/06/22 00:26:15;;;;;;;11.43;7.43;;;;;;;;;;5110429;28;20367;-81
2022/06/22 00:28:56;;;;;;;9.27;7.43;;;;;;;;;;5109995;28;20039;-81
2022/06/22 00:31:35;;;;;;;11.00;8.07;;;;;;;;;;5109124;28;20052;-81
2022/06/22 00:34:03;;;;;;;12.65;8.52;;;;;;;;;;5107263;28;20440;-81
2022/06/22 00:36:32;;;;;;;12.18;8.45;;;;;;;;;;5110205;28;20134;-81
2022/06/22 00:39:15;;;;;;;14.10;8.77;;;;;;;;;;5082197;28;20036;-81
2022/06/22 00:41:43;;;;;;;10.88;8.55;;;;;;;;;;5106774;28;20501;-81
2022/06/22 00:44:09;;;;;;;12.43;8.63;;;;;;;;;;5093503;28;20044;-80
2022/06/22 00:46:41;;;;;;;11.25;8.63;;;;;;;;;;5110139;28;20074;-81
2022/06/22 00:49:11;;;;;;;14.00;9.75;;;;;;;;;;5096150;28;20036;-81
2022/06/22 00:51:39;;;;;;;13.57;9.65;;;;;;;;;;5089664;28;20089;-80
2022/06/22 00:54:11;;;;;;;11.05;8.68;;;;;;;;;;5095879;28;20040;-81
2022/06/22 00:56:37;;;;;;;15.25;9.27;;;;;;;;;;5082322;28;20047;-81
2022/06/22 00:59:16;;;;;;;12.88;8.30;;;;;;;;;;5104708;28;20055;-81
2022/06/22 01:01:57;;;;;;;11.82;8.13;;;;;;;;;;5094388;28;20047;-81
2022/06/22 01:04:30;;;;;;;10.27;8.27;;;;;;;;;;5099669;28;20054;-81
2022/06/22 01:07:05;;;;;;;11.48;8.07;;;;;;;;;;5104812;28;20047;-81
2022/06/22 01:09:31;;;;;;;14.07;9.18;;;;;;;;;;5093522;28;20364;-81
2022/06/22 01:15:03;;;;;;;12.98;9.00;;;;;;;;;;5105988;28;20123;-81
2022/06/22 01:17:39;;;;;;;10.65;7.75;;;;;;;;;;5094058;28;20081;-81
2022/06/22 01:20:15;;;;;;;12.40;8.60;;;;;;;;;;5099896;28;20052;-81
2022/06/22 01:22:49;;;;;;;12.05;7.88;;;;;;;;;;5087229;28;20414;-81
2022/06/22 01:25:18;;;;;;;11.20;7.65;;;;;;;;;;5092990;28;20043;-81
2022/06/22 01:27:45;;;;;;;11.38;7.75;;;;;;;;;;5101340;28;20102;-81
2022/06/22 01:30:32;;;;;;;13.20;8.25;;;;;;;;;;5084621;28;20058;-81
2022/06/22 01:33:00;;;;;;;11.63;7.80;;;;;;;;;;5092861;28;20123;-81
2022/06/22 01:35:34;;;;;;;11.40;7.28;;;;;;;;;;5102817;28;20036;-81
2022/06/22 01:38:10;;;;;;;10.13;8.10;;;;;;;;;;5084084;28;20686;-81
2022/06/22 01:40:45;;;;;;;11.32;7.75;;;;;;;;;;5092613;28;20055;-81
2022/06/22 01:43:33;;;;;;;9.85;7.45;;;;;;;;;;5086761;28;20391;-81
2022/06/22 01:46:11;;;;;;;9.80;7.10;;;;;;;;;;5101508;28;20118;-81
2022/06/22 01:48:58;;;;;;;9.50;6.82;;;;;;;;;;5107569;28;20130;-81
2022/06/22 01:51:33;;;;;;;9.13;7.18;;;;;;;;;;5097088;28;20043;-81
2022/06/22 01:54:02;;;;;;;10.63;7.13;;;;;;;;;;5095075;28;20040;-81
2022/06/22 01:56:39;;;;;;;10.85;7.15;;;;;;;;;;5105134;28;20040;-81
2022/06/22 01:59:23;;;;;;;10.70;7.50;;;;;;;;;;5095463;28;20046;-80
2022/06/22 02:02:10;;;;;;;10.98;7.72;;;;;;;;;;5095168;28;20071;-81
2022/06/22 02:04:43;;;;;;;10.48;8.35;;;;;;;;;;5119391;27;20494;-80
2022/06/22 02:10:02;;;;;;;12.43;7.57;;;;;;;;;;5104485;28;20508;-80
2022/06/22 02:12:31;;;;;;;11.23;8.30;;;;;;;;;;5089240;28;20050;-81
2022/06/22 02:15:11;;;;;;;12.48;8.43;;;;;;;;;;5088183;28;20047;-81
2022/06/22 02:17:39;;;;;;;11.63;7.55;;;;;;;;;;5102244;28;20055;-81
2022/06/22 02:20:21;;;;;;;10.68;7.72;;;;;;;;;;5092302;28;20055;-80
2022/06/22 02:22:48;;;;;;;11.95;8.63;;;;;;;;;;5100433;28;20048;-80
2022/06/22 02:25:15;;;;;;;12.38;7.90;;;;;;;;;;5100373;28;20043;-81
2022/06/22 02:27:41;;;;;;;12.07;7.95;;;;;;;;;;5075237;28;20039;-81
2022/06/22 02:30:08;;;;;;;11.80;8.13;;;;;;;;;;5087325;28;20115;-80
2022/06/22 02:32:36;;;;;;;12.75;8.35;;;;;;;;;;5095440;28;20046;-80
2022/06/22 02:35:04;;;;;;;9.93;8.15;;;;;;;;;;5096900;28;20503;-81
2022/06/22 02:37:33;;;;;;;11.60;8.57;;;;;;;;;;5103765;28;20136;-81
2022/06/22 02:40:03;;;;;;;13.85;10.10;;;;;;;;;;5074850;28;20039;-81
2022/06/22 02:45:17;;;;;;;11.98;8.18;;;;;;;;;;5101066;28;20078;-81
2022/06/22 02:47:57;;;;;;;11.27;8.27;;;;;;;;;;5091558;28;20457;-81
2022/06/22 02:50:28;;;;;;;12.02;7.72;;;;;;;;;;5099638;28;20036;-81
2022/06/22 02:52:56;;;;;;;11.50;8.27;;;;;;;;;;5083771;28;20040;-81
2022/06/22 02:55:24;;;;;;;12.80;9.13;;;;;;;;;;5096812;28;20509;-81
2022/06/22 02:57:53;;;;;;;13.00;9.00;;;;;;;;;;5102853;28;20036;-82
2022/06/22 03:00:21;;;;;;;13.32;9.93;;;;;;;;;;5097470;28;20692;-80
2022/06/22 03:02:48;;;;;;;12.25;8.85;;;;;;;;;;5094134;28;20256;-81
2022/06/22 03:05:15;;;;;;;13.32;9.90;;;;;;;;;;5103884;28;20035;-81
2022/06/22 03:07:45;;;;;;;15.60;10.07;;;;;;;;;;5092515;28;20110;-81
2022/06/22 03:10:32;;;;;;;14.55;10.73;;;;;;;;;;5081342;28;20074;-81
2022/06/22 03:13:00;;;;;;;13.50;9.57;;;;;;;;;;5104010;28;20039;-81
2022/06/22 03:15:29;;;;;;;13.82;10.23;;;;;;;;;;5091435;28;20043;-82
2022/06/22 03:17:56;;;;;;;12.95;9.43;;;;;;;;;;5098868;28;20036;-82
2022/06/22 03:20:24;;;;;;;16.30;10.13;;;;;;;;;;5100303;28;20078;-80
2022/06/22 03:22:52;;;;;;;15.60;10.50;;;;;;;;;;5089869;28;20535;-81
2022/06/22 03:25:18;;;;;;;15.95;10.98;;;;;;;;;;5103297;28;20483;-81
2022/06/22 03:27:47;;;;;;;15.90;10.95;;;;;;;;;;5095605;28;20049;-81
2022/06/22 03:30:15;;;;;;;16.00;11.20;;;;;;;;;;5077772;28;20103;-81
2022/06/22 03:32:49;;;;;;;14.75;10.57;;;;;;;;;;5104110;28;20785;-81
2022/06/22 03:35:27;;;;;;;29.83;12.02;;;;;;;;;;5092646;28;20623;-81
2022/06/22 03:38:08;;;;;;;16.27;11.60;;;;;;;;;;5096251;28;20043;-80
2022/06/22 03:40:43;;;;;;;18.27;11.68;;;;;;;;;;5103652;28;20075;-80
2022/06/22 03:43:11;;;;;;;15.90;11.02;;;;;;;;;;5092639;28;20403;-80
2022/06/22 03:45:47;;;;;;;15.27;10.35;;;;;;;;;;5084473;28;20040;-80
2022/06/22 03:48:25;;;;;;;15.20;11.10;;;;;;;;;;5106692;28;20413;-81
2022/06/22 03:51:03;;;;;;;14.07;10.25;;;;;;;;;;5095224;28;20074;-81
2022/06/22 03:53:48;;;;;;;15.27;11.20;;;;;;;;;;5111941;28;20410;-81
2022/06/22 03:56:20;;;;;;;13.63;10.30;;;;;;;;;;5093776;28;20105;-81
2022/06/22 03:58:48;;;;;;;13.98;10.13;;;;;;;;;;5091524;28;20032;-81
2022/06/22 04:01:15;;;;;;;15.30;11.05;;;;;;;;;;5102044;28;20119;-81
2022/06/22 04:03:42;;;;;;;14.35;10.40;;;;;;;;;;5103709;28;20035;-81
2022/06/22 04:06:08;;;;;;;14.45;10.40;;;;;;;;;;5094870;28;20494;-81
2022/06/22 04:08:36;;;;;;;13.90;10.65;;;;;;;;;;5106522;28;20043;-81
2022/06/22 04:11:05;;;;;;;15.45;10.63;;;;;;;;;;5099207;28;20042;-81
2022/06/22 04:13:38;;;;;;;14.60;10.80;;;;;;;;;;5097885;28;20040;-80
2022/06/22 04:16:14;;;;;;;13.95;11.15;;;;;;;;;;5107689;28;20039;-81
2022/06/22 04:18:42;;;;;;;14.07;10.57;;;;;;;;;;5097004;28;20040;-81
2022/06/22 04:21:11;;;;;;;15.32;11.13;;;;;;;;;;5099989;28;20047;-81
2022/06/22 04:23:40;;;;;;;13.27;10.27;;;;;;;;;;5105481;28;20641;-81
2022/06/22 04:26:25;;;;;;;13.80;10.55;;;;;;;;;;5093931;28;20131;-80
2022/06/22 04:28:54;;;;;;;;;;;;;;;;;;5101496;28;20043;-81
2022/06/22 04:31:25;;;;;;;13.23;9.82;;;;;;;;;;5121200;27;19915;-80
2022/06/22 04:33:55;;;;;;;11.50;8.63;;;;;;;;;;5093818;28;20043;-81
2022/06/22 04:36:33;;;;;;;11.63;8.57;;;;;;;;;;5103896;28;20044;-80
2022/06/22 04:39:02;;;;;;;12.95;9.75;;;;;;;;;;5102233;28;20043;-80
2022/06/22 04:41:37;;;;;;;12.70;9.38;;;;;;;;;;5077085;28;20122;-80
2022/06/22 04:44:05;;;;;;;13.38;10.52;;;;;;;;;;5104869;28;20494;-81
2022/06/22 04:46:33;;;;;;;15.13;11.52;;;;;;;;;;5083608;28;20142;-82
2022/06/22 04:49:04;;;;;;;14.88;10.68;;;;;;;;;;5086359;28;20118;-82
2022/06/22 04:51:33;;;;;;;12.80;9.40;;;;;;;;;;5093745;28;20227;-81
2022/06/22 04:53:59;;;;;;;13.40;9.95;;;;;;;;;;5103884;28;20089;-81
2022/06/22 04:56:37;;;;;;;12.80;9.70;;;;;;;;;;5099659;28;20044;-81
2022/06/22 04:59:04;;;;;;;13.00;9.10;;;;;;;;;;5094575;28;20051;-81
2022/06/22 05:01:33;;;;;;;12.65;9.25;;;;;;;;;;5106362;28;20036;-81
2022/06/22 05:04:01;;;;;;;12.00;9.02;;;;;;;;;;5080350;28;20473;-81
2022/06/22 05:06:41;;;;;;;11.70;9.10;;;;;;;;;;5098417;28;20094;-81
2022/06/22 05:09:11;;;;;;;12.55;9.25;;;;;;;;;;5106369;28;20066;-81
2022/06/22 05:11:41;;;;;;;13.40;9.10;;;;;;;;;;5095058;28;20047;-81
2022/06/22 05:14:22;;;;;;;11.70;8.88;;;;;;;;;;5103268;28;20474;-81
2022/06/22 05:16:56;;;;;;;15.07;10.98;;;;;;;;;;5095550;28;20047;-81
2022/06/22 05:19:25;;;;;;;14.18;9.07;;;;;;;;;;5091575;28;20428;-81
2022/06/22 05:21:51;;;;;;;13.98;9.55;;;;;;;;;;5102478;28;20044;-81
2022/06/22 05:24:23;;;;;;;12.48;8.93;;;;;;;;;;5091924;28;20040;-80
2022/06/22 05:26:51;;;;;;;12.52;8.55;;;;;;;;;;5089010;28;20132;-82
2022/06/22 05:29:20;;;;;;;12.60;8.50;;;;;;;;;;5095821;28;20047;-81
2022/06/22 05:31:48;;;;;;;12.85;9.32;;;;;;;;;;5082936;28;20040;-82
2022/06/22 05:34:27;;;;;;;14.27;9.50;;;;;;;;;;5095976;28;20383;-82
2022/06/22 05:37:00;;;;;;;17.35;11.15;;;;;;;;;;5089965;28;20123;-81
2022/06/22 05:39:26;;;;;;;15.55;11.55;;;;;;;;;;5101187;28;20039;-81
2022/06/22 05:41:53;;;;;;;21.48;14.10;;;;;;;;;;5092503;28;20075;-82
2022/06/22 05:44:20;;;;;;;15.50;11.20;;;;;;;;;;5104461;28;20254;-82
2022/06/22 05:46:57;;;;;;;17.70;12.13;;;;;;;;;;5092483;28;20039;-82
2022/06/22 05:49:44;;;;;;;16.40;11.95;;;;;;;;;;5100281;28;20043;-81
2022/06/22 05:52:42;;;;;;;18.77;13.43;;;;;;;;;;5104133;28;20063;-81
2022/06/22 05:55:22;;;;;;;13.88;10.35;;;;;;;;;;5086432;27;20524;-81
2022/06/22 05:58:03;;;;;;;20.05;12.10;;;;;;;;;;5078404;28;20309;-81
2022/06/22 06:00:36;;;;;;;14.48;10.15;;;;;;;;;;5105137;28;20050;-81
2022/06/22 06:03:12;;;;;;;22.92;15.48;;;;;;;;;;5096504;28;20494;-81
2022/06/22 06:05:44;;;;;;;20.02;12.85;;;;;;;;;;5095500;28;20406;-81
2022/06/22 06:08:16;;;;;;;23.00;15.63;;;;;;;;;;5087561;28;20075;-81
2022/06/22 06:10:43;;;;;;;23.85;14.13;;;;;;;;;;5097279;28;20051;-80
2022/06/22 06:13:13;;;;;;;18.50;11.80;;;;;;;;;;5089575;28;20070;-82
2022/06/22 06:15:40;;;;;;;18.83;12.50;;;;;;;;;;5085879;28;20046;-82
2022/06/22 06:18:08;;;;;;;19.02;13.70;;;;;;;;;;5092350;28;20047;-82
2022/06/22 06:20:36;;;;;;;20.23;13.65;;;;;;;;;;5102226;28;20040;-82
2022/06/22 06:23:09;;;;;;;20.45;13.77;;;;;;;;;;5098375;28;20047;-82
2022/06/22 06:28:33;;;;;;;15.15;10.32;;;;;;;;;;5102161;28;20035;-81
2022/06/22 06:31:05;;;;;;;16.77;10.35;;;;;;;;;;5095651;28;20040;-81
2022/06/22 06:33:31;;;;;;;15.35;10.68;;;;;;;;;;5094603;28;20040;-81
2022/06/22 06:36:11;;;;;;;18.00;11.20;;;;;;;;;;5088020;28;20043;-81
2022/06/22 06:38:38;;;;;;;17.27;10.48;;;;;;;;;;5092094;28;20126;-82
2022/06/22 06:41:04;;;;;;;20.95;13.02;;;;;;;;;;5107442;27;20040;-84
2022/06/22 06:43:37;;;;;;;21.55;13.45;;;;;;;;;;5081606;27;20413;-82
2022/06/22 06:46:11;;;;;;;19.95;13.70;;;;;;;;;;5085818;28;20043;-83
2022/06/22 06:48:38;;;;;;;23.13;14.30;;;;;;;;;;5097172;28;20071;-83
2022/06/22 06:51:05;;;;;;;22.35;13.35;;;;;;;;;;5105038;27;20490;-82
2022/06/22 06:53:39;;;;;;;17.48;12.75;;;;;;;;;;5103207;27;20402;-81
2022/06/22 06:56:44;;;;;;;18.08;12.88;;;;;;;;;;5109509;28;20102;-82
2022/06/22 06:59:15;;;;;;;13.68;9.13;;;;;;;;;;5008700;28;20045;-81
2022/06/22 08:08:16;;;;;;;10.00;6.15;;;;;;;;;;5092045;28;20193;-90
2022/06/22 08:45:39;;;;;;;9.52;5.68;;;;;;;;;;5090825;28;20507;-93
2022/06/22 09:24:09;;;;;;;9.90;5.97;;;;;;;;;;4990547;28;20041;-91
2022/06/22 09:39:53;;;;;;;12.95;6.35;;;;;;;;;;4991739;28;20061;-89
2022/06/22 09:42:31;;;;;;;9.85;5.70;;;;;;;;;;4980054;28;20061;-92
2022/06/22 09:45:16;;;;;;;10.32;5.97;;;;;;;;;;4977391;28;20069;-90
2022/06/22 09:48:22;;;;;;;10.23;5.95;;;;;;;;;;4982600;28;20093;-91
2022/06/22 10:08:19;;;;;;;10.30;5.75;;;;;;;;;;4977692;28;20113;-87
2022/06/22 10:11:17;;;;;;;10.60;5.75;;;;;;;;;;4969537;28;20400;-87
2022/06/22 10:13:53;;;;;;;9.07;4.85;;;;;;;;;;4958550;28;20034;-93
2022/06/22 10:23:24;;;;;;;10.02;5.88;;;;;;;;;;4981247;28;20398;-85
2022/06/22 10:32:59;;;;;;;11.52;5.85;;;;;;;;;;5036128;28;20117;-90
2022/06/22 10:39:16;;;;;;;10.77;6.38;;;;;;;;;;5078175;28;20570;-92
2022/06/22 10:45:29;;;;;;;10.60;5.93;;;;;;;;;;5063459;28;20052;-86
2022/06/22 12:33:00;;;;;;;8.98;4.90;;;;;;;;;;5164548;27;20498;-90
2022/06/22 12:35:36;;;;;;;10.10;4.88;;;;;;;;;;5129985;27;20034;-87
2022/06/22 12:38:23;;;;;;;8.23;4.50;;;;;;;;;;5144656;27;20043;-88
2022/06/22 12:41:25;;;;;;;6.97;4.20;;;;;;;;;;5163569;27;20059;-88
2022/06/22 12:44:10;;;;;;;8.90;4.60;;;;;;;;;;5120968;27;20042;-86
2022/06/22 12:46:47;;;;;;;8.20;4.28;;;;;;;;;;5131808;27;20038;-92
2022/06/22 12:49:32;;;;;;;7.93;4.18;;;;;;;;;;5132417;27;20068;-93
2022/06/22 12:51:58;;;;;;;;;;;;;;;;;;5132916;27;20042;-83
2022/06/22 12:54:52;;;;;;;8.68;4.75;;;;;;;;;;5120938;28;19916;-90
2022/06/22 12:57:28;;;;;;;8.27;4.38;;;;;;;;;;5135174;27;20520;-94
2022/06/22 12:59:59;;;;;;;8.80;4.03;;;;;;;;;;5144938;27;20073;-96
2022/06/22 13:02:28;;;;;;;8.80;3.88;;;;;;;;;;5137785;27;20114;-89
2022/06/22 13:05:00;;;;;;;7.65;4.40;;;;;;;;;;5122565;27;20043;-89
2022/06/22 13:07:27;;;;;;;8.90;4.07;;;;;;;;;;5114199;27;20469;-92
2022/06/22 13:09:54;;;;;;;8.02;3.70;;;;;;;;;;5118389;27;20143;-91
2022/06/22 13:12:23;;;;;;;7.57;3.90;;;;;;;;;;5115586;27;20127;-87
2022/06/22 13:14:53;;;;;;;9.55;4.63;;;;;;;;;;5124747;27;20039;-90
2022/06/22 13:17:29;;;;;;;7.72;3.92;;;;;;;;;;5123170;27;20031;-91
2022/06/22 13:20:12;;;;;;;8.90;4.00;;;;;;;;;;5126685;28;20051;-88
2022/06/22 13:22:41;;;;;;;7.18;4.13;;;;;;;;;;5110644;27;20042;-93
2022/06/22 13:25:26;;;;;;;7.45;4.30;;;;;;;;;;5112707;27;20092;-88
2022/06/22 13:27:55;;;;;;;7.47;3.70;;;;;;;;;;5121701;28;20050;-90
2022/06/22 13:30:30;;;;;;;8.05;3.80;;;;;;;;;;5120044;27;20433;-86
2022/06/22 13:33:07;;;;;;;9.40;4.88;;;;;;;;;;5117392;27;20031;-89
2022/06/22 13:35:44;;;;;;;10.35;5.70;;;;;;;;;;5124417;28;20092;-94
2022/06/22 13:38:19;;;;;;;14.45;5.18;;;;;;;;;;5130153;28;20122;-90
2022/06/22 13:40:52;;;;;;;10.18;4.95;;;;;;;;;;5120185;27;20099;-92
2022/06/22 13:43:29;;;;;;;10.63;6.05;;;;;;;;;;5135256;27;20039;-84
2022/06/22 13:45:58;;;;;;;11.55;6.78;;;;;;;;;;5134604;27;20035;-87
2022/06/22 13:48:42;;;;;;;11.10;5.55;;;;;;;;;;5134003;27;20092;-87
2022/06/22 13:51:29;;;;;;;11.02;5.53;;;;;;;;;;5116954;27;20070;-90
2022/06/22 13:54:15;;;;;;;8.25;5.63;;;;;;;;;;5134221;27;20045;-86
2022/06/22 13:56:41;;;;;;;9.90;5.32;;;;;;;;;;5110283;27;20042;-87
2022/06/22 13:59:21;;;;;;;8.18;4.40;;;;;;;;;;5134256;27;20473;-89
2022/06/22 14:01:50;;;;;;;7.05;4.47;;;;;;;;;;5117185;27;20557;-92
2022/06/22 14:04:19;;;;;;;8.88;5.10;;;;;;;;;;5117429;27;20041;-85
2022/06/22 14:06:54;;;;;;;11.73;6.22;;;;;;;;;;5134582;27;20398;-88
2022/06/22 14:09:36;;;;;;;12.38;6.70;;;;;;;;;;5113626;27;20080;-88
2022/06/22 14:12:06;;;;;;;10.02;4.97;;;;;;;;;;5109604;27;20035;-88
2022/06/22 14:14:36;;;;;;;11.82;5.85;;;;;;;;;;5097918;27;20095;-88
2022/06/22 14:17:09;;;;;;;7.38;4.90;;;;;;;;;;5101887;27;20031;-92
2022/06/22 14:19:49;;;;;;;9.60;4.82;;;;;;;;;;5087103;28;20101;-89
2022/06/22 14:22:21;;;;;;;8.65;4.93;;;;;;;;;;5104904;27;20109;-89
2022/06/22 14:24:49;;;;;;;8.40;5.43;;;;;;;;;;5115084;27;20044;-88
2022/06/22 14:27:27;;;;;;;9.35;4.68;;;;;;;;;;5096086;27;20103;-88
2022/06/22 14:30:01;;;;;;;9.93;5.03;;;;;;;;;;5102349;27;20071;-90
2022/06/22 14:32:35;;;;;;;9.88;4.75;;;;;;;;;;5085984;28;20032;-91
2022/06/22 14:35:18;;;;;;;9.10;5.60;;;;;;;;;;5102223;28;20497;-90
2022/06/22 14:37:49;;;;;;;8.27;4.90;;;;;;;;;;5099024;28;20115;-88
2022/06/22 14:40:25;;;;;;;8.98;4.97;;;;;;;;;;5088097;28;20046;-91
2022/06/22 14:42:54;;;;;;;8.38;4.82;;;;;;;;;;5085251;28;20074;-88
2022/06/22 14:45:21;;;;;;;10.82;5.07;;;;;;;;;;5099994;28;20098;-89
2022/06/22 14:47:50;;;;;;;14.73;5.88;;;;;;;;;;5080328;28;20067;-89
2022/06/22 14:50:16;;;;;;;10.20;5.78;;;;;;;;;;5102629;28;20509;-90
2022/06/22 14:53:06;;;;;;;9.70;5.47;;;;;;;;;;5082107;28;20032;-89
2022/06/22 14:55:39;;;;;;;7.15;4.95;;;;;;;;;;5099171;27;20063;-88
2022/06/22 14:58:06;;;;;;;10.88;5.07;;;;;;;;;;5119073;27;20100;-95
2022/06/22 15:03:39;;;;;;;12.98;5.88;;;;;;;;;;5111731;27;20495;-90
2022/06/22 15:06:32;;;;;;;9.75;5.13;;;;;;;;;;5133147;27;20047;-86
2022/06/22 15:09:12;;;;;;;8.82;5.45;;;;;;;;;;5122391;27;20498;-89
2022/06/22 15:14:30;;;;;;;10.30;6.78;;;;;;;;;;5127028;27;20035;-89
2022/06/22 15:17:06;;;;;;;13.05;6.80;;;;;;;;;;5099801;28;20056;-92
2022/06/22 15:19:38;;;;;;;8.13;5.03;;;;;;;;;;5116260;27;20046;-90
2022/06/22 15:22:07;;;;;;;9.80;6.03;;;;;;;;;;5101162;27;20032;-89
2022/06/22 15:24:39;;;;;;;9.98;5.65;;;;;;;;;;5123546;27;20042;-87
2022/06/22 15:27:24;;;;;;;13.32;7.47;;;;;;;;;;5098599;28;20087;-88
2022/06/22 15:29:55;;;;;;;11.18;7.28;;;;;;;;;;5057689;28;20036;-91
2022/06/22 15:32:38;;;;;;;10.95;6.28;;;;;;;;;;5073890;28;20075;-90
2022/06/22 15:35:23;;;;;;;13.35;6.55;;;;;;;;;;5101303;28;20123;-88
2022/06/22 15:37:58;;;;;;;12.10;6.45;;;;;;;;;;5113735;28;20135;-87
2022/06/22 15:40:49;;;;;;;10.25;6.72;;;;;;;;;;5098936;28;20047;-91
2022/06/22 15:43:46;;;;;;;17.00;8.80;;;;;;;;;;5073374;28;20082;-88
2022/06/22 15:46:21;;;;;;;13.73;6.93;;;;;;;;;;5074199;28;20055;-90
2022/06/22 15:48:48;;;;;;;13.40;6.80;;;;;;;;;;5056837;28;20191;-89
2022/06/22 15:51:25;;;;;;;11.65;6.47;;;;;;;;;;5056369;28;20032;-88
2022/06/22 15:54:15;;;;;;;11.27;6.38;;;;;;;;;;5075228;28;20463;-88
2022/06/22 15:56:53;;;;;;;12.88;7.05;;;;;;;;;;5081659;28;20526;-88
2022/06/22 15:59:41;;;;;;;12.50;6.10;;;;;;;;;;5094069;28;20040;-86
2022/06/22 16:02:43;;;;;;;13.82;7.78;;;;;;;;;;5094358;28;20514;-87
2022/06/22 16:05:17;;;;;;;16.85;7.97;;;;;;;;;;5074140;28;20536;-85
2022/06/22 16:08:13;;;;;;;11.52;6.85;;;;;;;;;;5083739;28;20127;-86
2022/06/22 16:13:27;;;;;;;15.50;6.50;;;;;;;;;;5016131;28;20132;-91
2022/06/22 16:13:43;;;;;;;17.10;7.30;;;;;;;;;;5021897;28;20141;-90
2022/06/22 16:16:28;;;;;;;12.15;5.90;;;;;;;;;;5074601;28;20040;-91
2022/06/22 16:18:54;;;;;;;;;;;;;;;;;;5057892;28;20135;-85
2022/06/22 16:21:43;;;;;;;13.80;7.32;;;;;;;;;;5079218;28;19964;-88
2022/06/22 16:24:22;;;;;;;11.32;6.45;;;;;;;;;;5106595;28;20035;-91
2022/06/22 16:27:01;;;;;;;10.90;5.38;;;;;;;;;;5090437;27;20035;-88
2022/06/22 16:29:50;;;;;;;10.70;6.07;;;;;;;;;;5111107;28;20045;-88
2022/06/22 16:32:42;;;;;;;11.25;5.90;;;;;;;;;;5090567;28;20055;-92
2022/06/22 16:35:21;;;;;;;13.23;5.68;;;;;;;;;;5058044;28;20035;-90
2022/06/22 16:38:09;;;;;;;11.23;5.63;;;;;;;;;;5057949;28;20044;-89
2022/06/22 16:41:06;;;;;;;14.13;5.55;;;;;;;;;;5056443;28;20044;-85
2022/06/22 16:43:48;;;;;;;12.07;5.47;;;;;;;;;;5075363;28;20156;-87
2022/06/22 16:46:17;;;;;;;13.05;6.53;;;;;;;;;;5080394;28;20039;-88
2022/06/22 16:48:48;;;;;;;11.82;6.10;;;;;;;;;;5078887;28;20039;-86
2022/06/22 16:51:35;;;;;;;10.73;5.63;;;;;;;;;;5095271;28;20047;-86
2022/06/22 16:54:04;;;;;;;10.05;5.25;;;;;;;;;;5077884;28;20089;-87
2022/06/22 16:56:39;;;;;;;9.52;5.13;;;;;;;;;;5096592;28;20036;-89
2022/06/22 16:59:13;;;;;;;10.77;5.47;;;;;;;;;;5076552;28;20040;-87
2022/06/22 17:01:57;;;;;;;8.95;4.72;;;;;;;;;;5056103;28;20131;-87
2022/06/22 17:04:28;;;;;;;10.18;4.90;;;;;;;;;;5107919;27;20117;-85
2022/06/22 17:07:04;;;;;;;7.93;4.63;;;;;;;;;;5119318;27;20115;-88
2022/06/22 17:09:34;;;;;;;9.65;4.55;;;;;;;;;;5118630;27;20088;-87
2022/06/22 17:12:17;;;;;;;12.25;5.57;;;;;;;;;;5126594;28;20031;-84
2022/06/22 17:14:50;;;;;;;13.77;4.95;;;;;;;;;;5100602;27;20535;-85
2022/06/22 17:17:31;;;;;;;10.10;5.10;;;;;;;;;;5118636;27;20099;-84
2022/06/22 17:20:19;;;;;;;10.77;4.80;;;;;;;;;;5102518;27;20543;-90
2022/06/22 17:22:46;;;;;;;8.70;4.47;;;;;;;;;;5101722;27;20431;-86
2022/06/22 17:25:16;;;;;;;66.53;10.18;;;;;;;;;;5100939;27;20064;-89
2022/06/22 17:27:48;;;;;;;9.90;5.05;;;;;;;;;;5086946;28;20054;-85
2022/06/22 17:30:20;;;;;;;9.55;4.15;;;;;;;;;;5082139;28;20082;-85
2022/06/22 17:33:06;;;;;;;16.92;5.38;;;;;;;;;;5082550;28;20036;-90
2022/06/22 17:35:42;;;;;;;16.73;4.63;;;;;;;;;;5082501;28;20562;-86
2022/06/22 17:38:24;;;;;;;9.25;4.07;;;;;;;;;;5081381;28;20035;-84
2022/06/22 17:40:51;;;;;;;9.30;4.30;;;;;;;;;;5102654;27;20050;-90
2022/06/22 17:43:36;;;;;;;11.75;4.03;;;;;;;;;;5103020;27;20038;-90
2022/06/22 17:46:02;;;;;;;;;;;;;;;;;;5087456;28;20035;-89
2022/06/22 17:48:28;;;;;;;11.60;4.15;;;;;;;;;;5083995;27;19920;-90
2022/06/22 17:50:59;;;;;;;9.13;3.30;;;;;;;;;;5101815;27;20075;-86
2022/06/22 17:53:43;;;;;;;6.50;3.20;;;;;;;;;;5075877;28;20035;-87
2022/06/22 17:56:18;;;;;;;8.50;3.10;;;;;;;;;;5085481;28;20036;-88
2022/06/22 17:58:50;;;;;;;7.05;3.33;;;;;;;;;;5059748;28;20040;-88
2022/06/22 18:01:25;;;;;;;7.78;3.55;;;;;;;;;;5106218;28;20042;-89
2022/06/22 18:04:21;;;;;;;8.18;3.58;;;;;;;;;;5097784;28;20051;-85
2022/06/22 18:06:53;;;;;;;6.90;2.78;;;;;;;;;;5066666;28;20051;-87
2022/06/22 18:09:24;;;;;;;6.55;3.10;;;;;;;;;;5096008;27;20039;-86
2022/06/22 18:11:51;;;;;;;5.47;2.80;;;;;;;;;;5115280;28;20043;-84
2022/06/22 18:14:17;;;;;;;7.80;2.80;;;;;;;;;;5097111;28;20027;-84
2022/06/22 18:16:45;;;;;;;7.53;3.15;;;;;;;;;;5095880;28;20135;-86
2022/06/22 18:19:24;;;;;;;5.22;2.90;;;;;;;;;;5080424;28;20045;-88
2022/06/22 18:21:57;;;;;;;6.95;3.03;;;;;;;;;;5100925;27;20047;-86
2022/06/22 18:24:24;;;;;;;7.80;3.30;;;;;;;;;;5078071;28;20074;-87
2022/06/22 18:26:58;;;;;;;6.60;2.78;;;;;;;;;;5097724;28;20092;-84
2022/06/22 18:29:30;;;;;;;7.80;2.95;;;;;;;;;;5114480;28;20039;-85
2022/06/22 18:31:56;;;;;;;5.13;2.80;;;;;;;;;;5094891;28;20071;-88
2022/06/22 18:34:29;;;;;;;5.45;2.65;;;;;;;;;;5078699;28;20190;-84
2022/06/22 18:36:59;;;;;;;4.88;2.60;;;;;;;;;;5077734;28;20039;-86
2022/06/22 18:42:21;;;;;;;;;;;;;;;;;;5116437;27;20053;-85
2022/06/22 18:44:58;;;;;;;5.53;2.70;;;;;;;;;;5094561;28;19916;-87
2022/06/22 18:47:28;;;;;;;5.20;2.60;;;;;;;;;;5094081;27;20428;-88
2022/06/22 18:49:54;;;;;;;7.38;3.10;;;;;;;;;;5075150;28;20048;-87
2022/06/22 18:52:37;;;;;;;5.25;2.60;;;;;;;;;;5075603;28;20027;-85
2022/06/22 18:55:16;;;;;;;4.78;2.40;;;;;;;;;;5074161;27;20035;-87
2022/06/22 18:57:44;;;;;;;8.45;2.97;;;;;;;;;;5093711;28;20146;-86
2022/06/22 19:00:13;;;;;;;5.18;2.67;;;;;;;;;;5090923;28;20281;-84
2022/06/22 19:02:42;;;;;;;5.55;3.00;;;;;;;;;;5074298;28;20070;-85
2022/06/22 19:05:19;;;;;;;7.45;2.72;;;;;;;;;;5091448;28;20052;-84
2022/06/22 19:07:47;;;;;;;5.38;2.63;;;;;;;;;;5086686;27;20035;-84
2022/06/22 19:10:27;;;;;;;6.55;2.47;;;;;;;;;;5089251;28;20036;-84
2022/06/22 19:12:58;;;;;;;6.38;3.05;;;;;;;;;;5088619;28;20524;-84
2022/06/22 19:15:33;;;;;;;4.28;2.60;;;;;;;;;;5088488;28;20114;-84
2022/06/22 19:18:06;;;;;;;5.35;2.85;;;;;;;;;;5073887;28;20487;-82
2022/06/22 19:20:47;;;;;;;5.70;2.70;;;;;;;;;;5073988;28;20089;-82
2022/06/22 19:23:21;;;;;;;5.65;2.78;;;;;;;;;;5090670;28;20447;-83
2022/06/22 19:25:53;;;;;;;5.88;2.80;;;;;;;;;;5091081;28;20134;-82
2022/06/22 19:28:23;;;;;;;5.28;2.22;;;;;;;;;;5091152;28;20040;-82
2022/06/22 19:31:11;;;;;;;4.10;2.20;;;;;;;;;;5090821;28;20050;-83
2022/06/22 19:34:07;;;;;;;5.95;2.65;;;;;;;;;;5089127;28;20039;-82
2022/06/22 19:36:42;;;;;;;5.97;2.42;;;;;;;;;;5067088;28;20050;-83
2022/06/22 19:39:15;;;;;;;5.10;2.60;;;;;;;;;;5074409;28;20550;-82
2022/06/22 19:41:49;;;;;;;5.75;2.53;;;;;;;;;;5078867;28;20343;-82
2022/06/22 19:44:18;;;;;;;5.55;2.60;;;;;;;;;;5087445;28;20517;-82
2022/06/22 19:46:57;;;;;;;4.20;2.20;;;;;;;;;;5054355;28;20040;-81
2022/06/22 19:49:26;;;;;;;5.28;2.30;;;;;;;;;;5070769;28;20092;-82
2022/06/22 19:51:55;;;;;;;5.03;2.25;;;;;;;;;;5086437;28;20394;-82
2022/06/22 19:54:40;;;;;;;5.13;2.40;;;;;;;;;;5057781;28;20130;-82
2022/06/22 19:57:06;;;;;;;;;;;;;;;;;;5091889;28;20466;-82
2022/06/22 19:59:37;;;;;;;6.05;2.58;;;;;;;;;;5077856;28;19924;-82
2022/06/22 20:02:06;;;;;;;5.30;2.72;;;;;;;;;;5070136;28;20075;-82
2022/06/22 20:04:51;;;;;;;6.13;2.88;;;;;;;;;;5076657;28;20046;-82
2022/06/22 20:07:17;;;;;;;;;;;;;;;;;;5061816;28;20101;-82
2022/06/22 20:10:02;;;;;;;6.13;2.60;;;;;;;;;;5086820;28;20406;-82
2022/06/22 20:12:40;;;;;;;5.32;2.40;;;;;;;;;;5076885;28;20072;-82
2022/06/22 20:15:11;;;;;;;5.38;2.70;;;;;;;;;;5078572;28;20118;-82
2022/06/22 20:17:41;;;;;;;4.53;2.72;;;;;;;;;;5059155;28;20036;-82
2022/06/22 20:20:08;;;;;;;5.38;2.42;;;;;;;;;;5086294;28;20040;-82
2022/06/22 20:22:44;;;;;;;5.70;2.92;;;;;;;;;;5062644;28;20401;-82
2022/06/22 20:25:13;;;;;;;5.60;2.70;;;;;;;;;;5060136;28;20072;-82
2022/06/22 20:27:45;;;;;;;7.22;2.55;;;;;;;;;;5088402;28;20055;-82
2022/06/22 20:30:13;;;;;;;4.88;2.40;;;;;;;;;;5083804;28;20048;-82